Spofford, NH (03462)

3:33 PM EDT on September 21, 2014 (GMT -0400)
Atop a hill overlooking Spofford Lake | Change Station
CLOSE
Current Station
Personal Weather Station
Location: Spofford, NH
Elevation: 898 ft
Nearby Weather Stations

Elev 898 ft 42.90 °N, 72.44 °W | Updated 4 seconds ago

Overcast
Overcast
75.2 °F
Feels Like 78 °F
N
0.0
Wind Variable Wind from North
Gusts 0.0 mph

Today
High -- | Low -- °F
--% Chance of Precip.
Yesterday
High -- | Low -- °F
Precip. -- in
6:35 AM 6:48 PM
Waning Crescent, 6% visible
Pressure 29.73 in
Visibility 10.0 miles
Clouds Scattered Clouds 1800 ft
Mostly Cloudy 2700 ft
Overcast 4300 ft
Heat Index 78 °F
Dew Point 52 °F
Humidity 44%
Rainfall 0.00 in
Snow Depth Not available.
UV 1 out of 12
Pollen .30 out of 12
Ozone Good
PM2.5 Good
Flu Activity Not available.
METAR KEEN 211915Z AUTO 20007KT 10SM SCT018 BKN027 OVC043 23/16 A2973 RMK AO1

More Conditions Fewer Conditions

Pressure 29.73 in
Visibility 10.0 miles
Clouds Scattered Clouds 1800 ft
Mostly Cloudy 2700 ft
Overcast 4300 ft
Heat Index 78 °F
Dew Point 52 °F
Humidity 44%
Rainfall 0.00 in
Snow Depth Not available.
UV 1 out of 12
Pollen .30 out of 12
Ozone Good
PM2.5 Good
Flu Activity Not available.
METAR KEEN 211915Z AUTO 20007KT 10SM SCT018 BKN027 OVC043 23/16 A2973 RMK AO1

More Conditions Fewer Conditions

10-Day Weather Forecast

Almanac

Astronomy

Sep. 21, 2014 Rise Set
Actual Time 6:35 AM EDT 6:48 PM EDT
Civil Twilight 6:07 AM EDT 7:17 PM EDT
Nautical Twilight 5:34 AM EDT 7:50 PM EDT
Astronomical Twilight 5:00 AM EDT 8:24 PM EDT
Moon 4:03 AM EDT 5:25 PM EDT
Length of Visible Light 13h 09m
Length of Day
12h 13m
Tomorrow will be 2m 54s shorter.
Waning Crescent, 6% of the Moon is Illuminated
Today
Waning Crescent
Sep 24
New
Oct 1
First Quarter
Oct 8
Full
Oct 15
Last Quarter

Today's Extremes

State Highs State Lows

Community

WunderPhotos

Upload Photos

1,755,232 photos uploaded!

Nearby

Air Quality

  Air Quality AQ Index Pollutant
Yesterday Good
PM2.5
Yesterday Good
OZONE
Current Good
OZONE
Current Good
PM2.5
Sunday Good
PM2.5
Sunday Good
OZONE
Monday Good
PM2.5
Monday Good
OZONE

Snow Depth

Station Depth Elevation
No new snow has been reported.

Earthquake Activity

City Distance Mag. Time & Date
No recent earthquake activity has been reported nearby.
Minimum magnitude displayed is 2.5.

Coastal Water Temperatures

Place Temperature
No Stations Reporting

Nearby Weather Stations